Time;durP1;ratioP1;P1;durP2;ratioP2;P2;SDS_P1;SDS_P2;PMS_P1;PMS_P2;Temp;Humidity;BMP_temperature;BMP_pressure;BME280_temperature;BME280_humidity;BME280_pressure;Samples;Min_cycle;Max_cycle;Signal;HPM_P1;HPM_P2
2022/06/29 00:04:14;;;;;;;0.20;0.00;;;22.30;99.90;;;;;;21221505;28;20274;-72
2022/06/29 00:14:18;;;;;;;0.20;0.03;;;22.10;99.90;;;;;;21222457;28;20206;-73
2022/06/29 00:24:23;;;;;;;0.20;0.00;;;21.80;99.90;;;;;;21230360;28;20231;-73
2022/06/29 00:34:27;;;;;;;0.20;0.00;;;21.70;99.90;;;;;;21236346;28;20227;-74
2022/06/29 00:44:32;;;;;;;0.20;0.00;;;21.60;99.90;;;;;;21237131;28;20302;-72
2022/06/29 00:54:39;;;;;;;0.20;0.00;;;21.60;99.90;;;;;;21236754;28;20214;-71
2022/06/29 01:04:45;;;;;;;0.20;0.00;;;21.40;99.90;;;;;;21236077;28;20245;-72
2022/06/29 01:14:51;;;;;;;0.20;0.00;;;21.20;99.90;;;;;;21234088;28;20219;-72
2022/06/29 01:24:56;;;;;;;0.20;0.00;;;21.10;99.90;;;;;;21234723;28;20294;-72
2022/06/29 01:35:00;;;;;;;0.20;0.10;;;21.10;99.90;;;;;;21229006;28;20222;-72
2022/06/29 01:45:06;;;;;;;0.20;0.10;;;21.20;99.90;;;;;;21232112;27;20286;-72
2022/06/29 01:55:10;;;;;;;0.20;0.10;;;21.00;99.90;;;;;;21230430;28;20246;-72
2022/06/29 02:05:16;;;;;;;0.20;0.00;;;21.10;99.90;;;;;;21230212;28;20291;-72
2022/06/29 02:15:20;;;;;;;0.20;0.00;;;21.50;99.90;;;;;;21227932;28;21173;-72
2022/06/29 02:25:25;;;;;;;0.20;0.00;;;21.70;99.90;;;;;;21229008;28;20230;-72
2022/06/29 02:35:29;;;;;;;0.20;0.00;;;21.70;99.90;;;;;;21228004;28;20264;-73
2022/06/29 02:45:34;;;;;;;0.20;0.00;;;21.70;99.90;;;;;;21227118;28;20239;-71
2022/06/29 02:55:38;;;;;;;0.20;0.00;;;21.60;99.90;;;;;;21227131;28;20202;-72
2022/06/29 03:05:43;;;;;;;0.20;0.00;;;21.60;99.90;;;;;;21225545;28;20287;-72
2022/06/29 03:15:48;;;;;;;0.20;0.00;;;21.40;99.90;;;;;;21224592;28;20239;-72
2022/06/29 03:25:53;;;;;;;0.20;0.00;;;21.30;99.90;;;;;;21222346;28;20245;-71
2022/06/29 03:35:57;;;;;;;0.20;0.00;;;21.40;99.90;;;;;;21225138;28;20203;-71
2022/06/29 03:46:02;;;;;;;0.20;0.00;;;21.40;99.90;;;;;;21223493;28;20223;-71
2022/06/29 03:56:06;;;;;;;0.20;0.00;;;21.50;99.90;;;;;;21229592;28;20191;-72
2022/06/29 04:06:13;;;;;;;0.20;0.00;;;21.40;99.90;;;;;;21240542;28;20282;-72
2022/06/29 04:16:17;;;;;;;0.20;0.00;;;21.50;99.90;;;;;;21237712;28;20764;-72
2022/06/29 04:26:22;;;;;;;0.20;0.00;;;21.30;99.90;;;;;;21238901;28;20215;-72
2022/06/29 04:36:27;;;;;;;0.20;0.00;;;21.30;99.90;;;;;;21237365;27;20226;-73
2022/06/29 04:46:32;;;;;;;0.20;0.00;;;21.20;99.90;;;;;;21237845;27;20285;-73
2022/06/29 04:56:36;;;;;;;0.20;0.10;;;21.30;99.90;;;;;;21233121;28;20202;-72
2022/06/29 05:06:41;;;;;;;0.20;0.00;;;21.60;99.90;;;;;;21232874;28;20191;-72
2022/06/29 05:16:46;;;;;;;0.20;0.00;;;21.70;99.90;;;;;;21233056;28;20219;-72
2022/06/29 05:26:51;;;;;;;0.20;0.00;;;21.80;99.90;;;;;;21233866;28;20203;-71
2022/06/29 05:36:55;;;;;;;0.20;0.00;;;22.00;99.90;;;;;;21230921;28;20218;-71
2022/06/29 05:47:00;;;;;;;0.20;0.00;;;22.00;99.90;;;;;;21230937;28;20196;-74
2022/06/29 05:57:06;;;;;;;0.20;0.00;;;22.40;99.90;;;;;;21229731;28;20218;-73
2022/06/29 06:07:11;;;;;;;0.20;0.00;;;22.70;99.90;;;;;;21228933;28;20200;-74
2022/06/29 06:17:15;;;;;;;0.20;0.00;;;23.10;99.90;;;;;;21227471;28;20231;-72
2022/06/29 06:27:20;;;;;;;0.20;0.00;;;23.50;99.90;;;;;;21227746;28;20196;-75
2022/06/29 06:37:24;;;;;;;0.20;0.10;;;23.50;99.90;;;;;;21226834;28;20275;-72
2022/06/29 06:47:29;;;;;;;0.20;0.00;;;23.80;99.90;;;;;;21223867;28;20301;-72
2022/06/29 06:57:33;;;;;;;0.20;0.00;;;24.20;99.90;;;;;;21223926;28;20238;-71
2022/06/29 07:07:39;;;;;;;0.20;0.00;;;24.00;99.90;;;;;;21222443;28;20187;-73
2022/06/29 07:17:43;;;;;;;0.20;0.00;;;24.00;99.90;;;;;;21223862;28;20231;-72
2022/06/29 07:27:48;;;;;;;0.20;0.00;;;24.10;99.90;;;;;;21220231;28;20198;-74
2022/06/29 07:37:51;;;;;;;0.20;0.00;;;24.10;99.90;;;;;;21218676;28;20231;-71
2022/06/29 07:47:56;;;;;;;0.20;0.00;;;24.20;99.90;;;;;;21217050;28;20210;-73
2022/06/29 07:58:00;;;;;;;0.20;0.00;;;24.20;99.90;;;;;;21216274;28;20215;-72
2022/06/29 08:08:07;;;;;;;0.20;0.00;;;24.30;99.90;;;;;;21218700;28;20195;-73
2022/06/29 08:18:10;;;;;;;0.20;0.00;;;24.60;99.90;;;;;;21218865;28;20290;-72
2022/06/29 08:28:15;;;;;;;0.35;0.35;;;24.60;99.90;;;;;;21217276;28;20229;-74
2022/06/29 08:38:19;;;;;;;0.20;0.00;;;24.50;99.90;;;;;;21218547;28;20237;-73
2022/06/29 08:48:26;;;;;;;0.20;0.00;;;24.60;99.90;;;;;;21189766;28;20192;-72
2022/06/29 08:58:30;;;;;;;0.20;0.00;;;24.80;99.90;;;;;;21133615;28;20235;-73
2022/06/29 09:08:35;;;;;;;0.20;0.00;;;25.00;99.90;;;;;;21201319;28;20195;-72
2022/06/29 09:18:39;;;;;;;0.20;0.00;;;25.20;99.90;;;;;;21220842;28;20234;-73
2022/06/29 09:28:44;;;;;;;0.20;0.00;;;25.10;99.90;;;;;;21221680;28;20259;-73
2022/06/29 09:38:48;;;;;;;0.20;0.00;;;25.30;99.90;;;;;;21222250;28;20257;-72
2022/06/29 09:48:53;;;;;;;0.20;0.00;;;25.60;99.90;;;;;;21218967;28;20258;-73
2022/06/29 09:58:59;;;;;;;0.20;0.10;;;25.80;99.90;;;;;;21218930;28;20245;-74
2022/06/29 10:09:04;;;;;;;0.20;0.00;;;26.20;99.90;;;;;;21220463;28;20207;-75
2022/06/29 10:19:25;;;;;;;0.20;0.00;;;26.50;99.90;;;;;;21218607;28;20255;-72
2022/06/29 10:29:34;;;;;;;0.20;0.10;;;27.00;99.90;;;;;;21218400;28;20255;-72
2022/06/29 10:40:00;;;;;;;0.20;0.00;;;27.50;99.90;;;;;;21202836;28;20220;-74
2022/06/29 10:50:25;;;;;;;0.20;0.00;;;27.40;99.90;;;;;;21212968;28;20255;-72
2022/06/29 11:00:32;;;;;;;0.20;0.00;;;27.50;99.90;;;;;;21212378;28;20215;-73
2022/06/29 11:21:03;;;;;;;0.20;0.00;;;29.00;99.90;;;;;;21209820;28;20295;-73
2022/06/29 11:31:12;;;;;;;0.20;0.00;;;28.90;99.90;;;;;;21211369;28;20202;-71
2022/06/29 11:41:18;;;;;;;0.20;0.00;;;29.80;99.90;;;;;;21211232;28;20223;-73
2022/06/29 11:51:32;;;;;;;0.20;0.00;;;31.10;99.90;;;;;;21212290;28;20207;-71
2022/06/29 12:01:36;;;;;;;0.20;0.00;;;31.10;99.90;;;;;;21213186;28;20278;-71
2022/06/29 12:11:41;;;;;;;0.20;0.00;;;31.20;99.90;;;;;;21212084;28;20196;-69
2022/06/29 12:21:45;;;;;;;0.20;0.00;;;31.90;99.90;;;;;;21224458;28;20238;-70
2022/06/29 12:31:50;;;;;;;0.20;0.00;;;31.30;99.90;;;;;;21228408;28;20211;-71
2022/06/29 12:41:54;;;;;;;0.20;0.00;;;31.60;99.90;;;;;;21188757;28;20233;-68
2022/06/29 12:52:00;;;;;;;0.20;0.00;;;32.70;99.90;;;;;;21220301;28;20233;-69
2022/06/29 13:02:05;;;;;;;0.20;0.00;;;32.90;99.90;;;;;;21216142;28;20368;-72
2022/06/29 13:12:11;;;;;;;0.20;0.00;;;32.50;99.90;;;;;;21223176;28;20258;-73
2022/06/29 13:22:15;;;;;;;0.20;0.00;;;33.30;99.90;;;;;;21220753;28;20227;-72
2022/06/29 13:32:20;;;;;;;0.20;0.00;;;34.00;99.90;;;;;;21219474;28;21062;-72
2022/06/29 13:42:24;;;;;;;0.20;0.00;;;33.80;99.90;;;;;;21142674;28;20237;-72
2022/06/29 13:52:30;;;;;;;0.20;0.00;;;34.70;99.90;;;;;;21135032;28;20220;-73
2022/06/29 14:02:34;;;;;;;0.20;0.00;;;35.20;99.90;;;;;;21129924;28;20280;-70
2022/06/29 14:12:40;;;;;;;0.20;0.00;;;33.80;99.90;;;;;;21132632;28;20255;-70
2022/06/29 14:22:43;;;;;;;0.20;0.00;;;33.90;99.90;;;;;;21131990;28;20247;-73
2022/06/29 14:32:49;;;;;;;0.20;0.00;;;33.80;99.90;;;;;;21131156;28;20192;-74
2022/06/29 14:42:53;;;;;;;0.20;0.00;;;34.80;99.90;;;;;;21127014;28;20254;-73
2022/06/29 14:52:58;;;;;;;0.20;0.00;;;34.60;99.90;;;;;;21127614;28;20291;-74
2022/06/29 15:03:02;;;;;;;0.20;0.00;;;35.00;99.90;;;;;;21125593;28;20208;-74
2022/06/29 15:13:07;;;;;;;0.20;0.00;;;34.80;99.90;;;;;;21123677;28;20263;-72
2022/06/29 15:23:11;;;;;;;0.20;0.00;;;33.80;99.90;;;;;;21127206;28;20283;-72
2022/06/29 15:38:45;;;;;;;0.20;0.00;;;33.40;99.90;;;;;;21125800;28;20203;-73
2022/06/29 15:43:40;;;;;;;0.20;0.00;;;34.20;99.90;;;;;;21122482;28;20283;-73
2022/06/29 16:04:07;;;;;;;0.20;0.00;;;33.50;99.90;;;;;;21195071;28;20249;-72
2022/06/29 16:14:12;;;;;;;0.20;0.00;;;32.70;99.90;;;;;;21225501;28;20199;-74
2022/06/29 16:24:16;;;;;;;0.20;0.00;;;32.80;99.90;;;;;;21223306;28;20290;-74
2022/06/29 16:34:21;;;;;;;0.20;0.00;;;31.10;99.90;;;;;;21216694;28;20199;-75
2022/06/29 16:44:26;;;;;;;0.20;0.00;;;31.80;99.90;;;;;;21118224;28;20314;-71
2022/06/29 16:54:31;;;;;;;0.20;0.00;;;31.80;99.90;;;;;;21141943;28;20223;-75
2022/06/29 17:04:35;;;;;;;0.20;0.00;;;32.40;99.90;;;;;;21142402;28;20283;-75
2022/06/29 17:14:42;;;;;;;0.20;0.00;;;32.80;99.90;;;;;;21146197;28;20199;-74
2022/06/29 17:24:46;;;;;;;0.20;0.00;;;33.80;99.90;;;;;;21170985;28;20250;-72
2022/06/29 17:34:51;;;;;;;0.20;0.00;;;32.90;99.90;;;;;;21223967;28;20207;-72
2022/06/29 17:44:55;;;;;;;0.20;0.00;;;32.90;99.90;;;;;;21226560;28;20215;-72
2022/06/29 17:55:01;;;;;;;0.20;0.00;;;32.20;99.90;;;;;;21169735;27;20203;-72
2022/06/29 18:05:05;;;;;;;0.20;0.00;;;30.90;99.90;;;;;;21144967;28;20219;-73
2022/06/29 18:15:11;;;;;;;0.20;0.00;;;31.20;99.90;;;;;;21143409;28;20236;-72
2022/06/29 18:25:15;;;;;;;0.20;0.00;;;30.30;99.90;;;;;;21140707;28;20252;-73
2022/06/29 18:35:20;;;;;;;0.20;0.00;;;29.80;99.90;;;;;;21143096;28;20254;-72
2022/06/29 18:45:24;;;;;;;0.20;0.00;;;28.30;99.90;;;;;;21192640;28;20246;-73
2022/06/29 18:55:29;;;;;;;0.20;0.00;;;28.10;99.90;;;;;;21217205;28;20215;-72
2022/06/29 19:05:33;;;;;;;0.20;0.10;;;27.40;99.90;;;;;;21217376;28;21056;-73
2022/06/29 19:15:38;;;;;;;0.20;0.00;;;25.90;99.90;;;;;;21218108;28;20246;-73
2022/06/29 19:25:42;;;;;;;0.20;0.00;;;25.60;99.90;;;;;;21219063;28;20306;-73
2022/06/29 19:35:47;;;;;;;0.20;0.00;;;25.00;99.90;;;;;;21210916;28;20187;-73
2022/06/29 19:45:52;;;;;;;0.20;0.00;;;24.90;99.90;;;;;;21218779;28;20238;-75
2022/06/29 19:55:57;;;;;;;0.20;0.00;;;24.90;99.90;;;;;;21217066;28;20216;-72
2022/06/29 20:06:14;;;;;;;0.20;0.00;;;24.80;99.90;;;;;;21217642;28;20253;-74
2022/06/29 20:16:19;;;;;;;0.20;0.00;;;24.70;99.90;;;;;;21218671;28;20223;-73
2022/06/29 20:26:25;;;;;;;0.20;0.00;;;24.60;99.90;;;;;;21213316;28;20219;-72
2022/06/29 20:36:31;;;;;;;0.20;0.00;;;24.50;99.90;;;;;;21214914;28;20192;-75
2022/06/29 20:46:36;;;;;;;0.20;0.00;;;24.60;99.90;;;;;;21237040;28;20254;-76
2022/06/29 20:56:41;;;;;;;0.20;0.00;;;24.50;99.90;;;;;;21234493;28;20217;-78
2022/06/29 21:06:52;;;;;;;0.20;0.00;;;24.30;99.90;;;;;;21233231;28;20302;-77
2022/06/29 21:16:58;;;;;;;0.20;0.00;;;24.30;99.90;;;;;;21183110;28;20215;-75
2022/06/29 21:27:02;;;;;;;0.20;0.00;;;24.40;99.90;;;;;;21200701;28;20220;-78
2022/06/29 21:37:07;;;;;;;0.20;0.00;;;24.20;99.90;;;;;;21200170;28;20202;-77
2022/06/29 21:47:10;;;;;;;0.20;0.00;;;24.20;99.90;;;;;;21228422;28;20215;-77
2022/06/29 21:57:20;;;;;;;0.20;0.00;;;24.20;99.90;;;;;;21230366;28;20194;-76
2022/06/29 22:07:23;;;;;;;0.20;0.00;;;23.90;99.90;;;;;;21229767;28;20211;-76
2022/06/29 22:17:29;;;;;;;0.20;0.00;;;23.80;99.90;;;;;;21228508;28;20246;-76
2022/06/29 22:27:32;;;;;;;0.20;0.00;;;23.70;99.90;;;;;;21225183;28;20223;-77
2022/06/29 22:37:37;;;;;;;0.20;0.00;;;23.60;99.90;;;;;;21220722;28;20192;-77
2022/06/29 22:47:41;;;;;;;0.20;0.00;;;23.50;99.90;;;;;;21223751;28;21090;-75
2022/06/29 22:57:46;;;;;;;0.20;0.00;;;23.40;99.90;;;;;;21215636;28;20183;-77
2022/06/29 23:07:51;;;;;;;0.20;0.00;;;23.50;99.90;;;;;;21204536;28;20219;-77
2022/06/29 23:17:56;;;;;;;0.20;0.00;;;23.20;99.90;;;;;;21173311;28;20223;-77
2022/06/29 23:28:00;;;;;;;0.20;0.00;;;23.30;99.90;;;;;;21218117;28;20219;-77
2022/06/29 23:38:06;;;;;;;0.20;0.00;;;23.10;99.90;;;;;;21170814;28;20191;-77
2022/06/29 23:48:10;;;;;;;0.20;0.00;;;23.00;99.90;;;;;;21179713;28;20239;-76
2022/06/29 23:58:15;;;;;;;0.20;0.00;;;22.70;99.90;;;;;;21222735;28;20191;-75
